JP Observations

RJAA 202000Z 34006KT 9999 R34L/P2000N R34R/0600VP2000U MIFG FEW010 05/04 Q1015 NOSIG RJAA 202000Z 34006KT 9999 R34L/P2000N R34R/0600VP2000U MIFG FEW010 05/04 Q1015 NOSIG RMK 1ST010 A2997 RJAH 202000Z 34005KT 9999 MIFG FEW030 04/02 Q1014 RJAW 202000Z 31005KT 9999 FEW020 22/19 Q1018 RMK 2CU020 A3007 RJBB 202000Z AUTO 34012KT 9999 SCT044 OVC050 08/01 Q1021 NOSIG RJCC 202000Z 16005KT 7000 -SHSN FEW003 BKN006 BKN010 M00/M01 Q1014 RJCC 202000Z 16005KT 7000 -SHSN FEW003 BKN006 BKN010 M00/M01 Q1014 RMK 1ST003 5ST006 6ST010 A2997 RJFF 202000Z AUTO 00000KT 9999 NSC 06/03 Q1023 NOSIG RJFF 202000Z AUTO 00000KT 9999 NSC 06/03 Q1023 NOSIG RMK A3022 RJFR 202000Z VRB01KT 9999 FEW045 BKN130 07/03 Q1023 RJGG 202000Z 32026KT 9999 FEW030 BKN/// 08/01 Q1018 NOSIG RJNK 202000Z 35010KT 9999 SCT030 BKN050 BKN070 07/M00 Q1022 RJOH 202000Z 01007KT 9999 FEW020 SCT030 BKN045 08/M03 Q1023 RJOI 201955Z 29005KT 9999 FEW035 SCT130 BKN180 04/01 A3022 RMK SLP233 T00440006 RJOO 202000Z 33008KT 9999 FEW025 BKN050 07/02 Q1021 RMK 1CU025 6SC050 A3017 RJOS 202000Z 31006KT 9999 FEW030 BKN250 07/M00 Q1021 RJSM 202000Z 28004KT 0200 R28/0750N FG VV000 M01/M01 Q1013 RJTT 202000Z 35018KT 9999 FEW025 SCT/// 09/00 Q1014 TEMPO 34022G32KT RMK 1CU025 A2996 RJTY 201956Z AUTO 02010KT 10SM CLR 05/M01 A3000 RMK AO2 SLP165 T00471009 FZRANO $ ROAH 202000Z 23007KT 9999 FEW020 BKN100 23/20 Q1017 ROAH 202000Z 23007KT 9999 FEW020 BKN100 23/20 Q1017 RMK 2CU020 6AC100 A3005 RODN 201956Z AUTO 23004KT 10SM CLR 21/21 A3006 RMK AO2 SLP186 T02140205 $ ROYN 202000Z AUTO 35010KT 9999 FEW009 BKN070 OVC090 //////TCU 24/22 Q1018 ROTM 201956Z 24005KT 10SM FEW010 SCT030 BKN050 21/ A3007 RMK AO2 SLP170 T0206 $